createdAt,value
2022-10-07T00:01:13.877Z,85.89
2022-10-07T00:03:42.905Z,85.99
2022-10-07T00:06:39.634Z,86.19
2022-10-07T00:08:08.681Z,86.09
2022-10-07T00:10:35.727Z,86.19
2022-10-07T00:14:29.246Z,86.19
2022-10-07T00:17:26.855Z,86.19
2022-10-07T00:20:53.260Z,86.30
2022-10-07T00:28:53.499Z,86.60
2022-10-07T00:32:19.037Z,86.71
2022-10-07T00:36:41.441Z,87.05
2022-10-07T00:38:10.311Z,87.26
2022-10-07T00:40:08.143Z,87.26
2022-10-07T00:41:37.029Z,87.26
2022-10-07T00:43:05.897Z,87.37
2022-10-07T00:44:34.806Z,87.37
2022-10-07T00:48:49.625Z,87.57
2022-10-07T00:50:40.479Z,87.77
2022-10-07T00:55:15.172Z,87.73
2022-10-07T00:56:45.059Z,87.73
2022-10-07T00:58:14.942Z,87.73
2022-10-07T01:01:04.019Z,87.84
2022-10-07T01:02:32.529Z,87.94
2022-10-07T01:04:02.437Z,88.04
2022-10-07T01:07:59.209Z,88.04
2022-10-07T01:09:44.701Z,88.04
2022-10-07T01:14:30.101Z,88.24
2022-10-07T01:17:46.761Z,88.24
2022-10-07T01:20:36.668Z,88.45
2022-10-07T01:22:26.359Z,88.45
2022-10-07T01:29:08.080Z,88.56
2022-10-07T01:36:47.909Z,88.86
2022-10-07T01:39:15.753Z,88.86
2022-10-07T01:44:08.418Z,88.86
2022-10-07T01:47:05.060Z,88.96
2022-10-07T01:49:22.925Z,89.07
2022-10-07T01:52:20.649Z,89.07
2022-10-07T01:53:48.564Z,89.07
2022-10-07T01:55:17.442Z,89.07
2022-10-07T01:59:11.026Z,88.96
2022-10-07T02:02:10.118Z,89.07
2022-10-07T02:04:08.054Z,89.17
2022-10-07T02:05:37.791Z,89.17
2022-10-07T02:07:07.685Z,89.07
2022-10-07T02:08:36.681Z,89.07
2022-10-07T02:15:26.000Z,89.37
2022-10-07T02:16:55.940Z,89.37
2022-10-07T02:18:53.848Z,89.27
2022-10-07T02:23:18.351Z,89.27
2022-10-07T02:25:46.086Z,89.48
2022-10-07T02:27:15.413Z,89.58
2022-10-07T02:29:42.779Z,89.69
2022-10-07T02:34:36.073Z,89.89
2022-10-07T02:39:01.538Z,89.89
2022-10-07T02:41:01.434Z,89.78
2022-10-07T02:42:59.213Z,89.89
2022-10-07T02:44:58.984Z,89.99
2022-10-07T02:46:57.797Z,89.99
2022-10-07T02:53:40.457Z,90.20
2022-10-07T02:55:10.325Z,90.20
2022-10-07T02:57:08.147Z,90.20
2022-10-07T02:59:46.012Z,90.20
2022-10-07T03:02:12.321Z,90.30
2022-10-07T03:03:41.287Z,90.30
2022-10-07T03:05:10.101Z,90.40
2022-10-07T03:06:39.002Z,90.40
2022-10-07T03:08:08.839Z,90.44
2022-10-07T03:12:24.017Z,90.55
2022-10-07T03:14:50.678Z,90.55
2022-10-07T03:17:18.719Z,90.65
2022-10-07T03:21:14.406Z,90.75
2022-10-07T03:26:08.993Z,90.85
2022-10-07T03:32:59.904Z,90.75
2022-10-07T03:35:57.545Z,90.75
2022-10-07T03:37:55.637Z,90.75
2022-10-07T03:40:24.309Z,90.75
2022-10-07T03:45:49.057Z,90.85
2022-10-07T03:48:46.171Z,90.95
2022-10-07T03:51:15.160Z,90.95
2022-10-07T03:54:10.705Z,91.20
2022-10-07T03:56:37.816Z,91.20
2022-10-07T04:03:00.174Z,91.51
2022-10-07T04:07:51.553Z,91.61
2022-10-07T04:10:19.379Z,91.72
2022-10-07T04:14:15.045Z,91.72
2022-10-07T04:16:13.867Z,91.61
2022-10-07T04:18:11.783Z,91.61
2022-10-07T04:19:41.807Z,91.72
2022-10-07T04:21:42.124Z,91.82
2022-10-07T04:24:59.808Z,91.93
2022-10-07T04:27:39.764Z,92.03
2022-10-07T04:30:43.119Z,92.03
2022-10-07T04:32:12.916Z,92.03
2022-10-07T04:34:10.721Z,92.07
2022-10-07T04:36:08.587Z,92.17
2022-10-07T04:38:06.554Z,92.17
2022-10-07T04:43:58.109Z,92.38
2022-10-07T04:47:22.117Z,92.48
2022-10-07T04:49:49.874Z,92.48
2022-10-07T04:52:18.316Z,92.48
2022-10-07T04:53:48.272Z,92.58
2022-10-07T04:55:17.130Z,92.58
2022-10-07T04:56:46.052Z,92.69
2022-10-07T04:59:14.664Z,92.69
2022-10-07T05:00:43.583Z,92.79
2022-10-07T05:02:43.299Z,92.79
2022-10-07T05:04:12.653Z,92.79
2022-10-07T05:05:41.142Z,92.79
2022-10-07T05:08:07.826Z,92.99
2022-10-07T05:13:19.056Z,93.14
2022-10-07T05:16:37.166Z,93.24
2022-10-07T05:21:00.307Z,93.24
2022-10-07T05:25:27.837Z,93.24
2022-10-07T05:27:57.501Z,93.35
2022-10-07T05:30:25.419Z,93.35
2022-10-07T05:32:24.240Z,93.44
2022-10-07T05:33:53.092Z,93.44
2022-10-07T05:35:50.960Z,93.44
2022-10-07T05:38:49.232Z,93.44
2022-10-07T05:40:47.089Z,93.44
2022-10-07T05:47:46.658Z,93.65
2022-10-07T05:54:00.788Z,93.86
2022-10-07T05:56:28.561Z,93.86
2022-10-07T06:01:24.978Z,93.96
2022-10-07T06:04:52.715Z,93.96
2022-10-07T06:06:21.845Z,93.96
2022-10-07T06:09:19.514Z,94.07
2022-10-07T06:16:48.328Z,94.17
2022-10-07T06:20:36.216Z,94.17
2022-10-07T06:26:00.551Z,94.27
2022-10-07T06:30:55.227Z,94.37
2022-10-07T06:36:09.569Z,94.43
2022-10-07T06:37:39.447Z,94.43
2022-10-07T06:39:59.779Z,94.43
2022-10-07T06:41:57.540Z,94.43
2022-10-07T06:43:25.900Z,94.43
2022-10-07T06:45:52.845Z,94.33
2022-10-07T06:48:19.430Z,94.33
2022-10-07T06:51:15.228Z,94.18
2022-10-07T06:55:39.447Z,94.18
2022-10-07T06:58:11.275Z,94.18
2022-10-07T07:01:04.067Z,94.29
2022-10-07T07:04:00.335Z,94.29
2022-10-07T07:06:58.049Z,94.24
2022-10-07T07:08:57.035Z,94.14
2022-10-07T07:10:55.816Z,94.14
2022-10-07T07:12:53.665Z,94.14
2022-10-07T07:15:22.347Z,93.99
2022-10-07T07:19:48.877Z,93.74
2022-10-07T07:22:15.676Z,93.64
2022-10-07T07:24:13.504Z,93.44
2022-10-07T07:27:57.473Z,93.08
2022-10-07T07:29:11.282Z,92.98
2022-10-07T07:31:38.204Z,92.57
2022-10-07T07:33:27.161Z,92.43
2022-10-07T07:39:50.047Z,91.87
2022-10-07T07:41:18.889Z,91.77
2022-10-07T07:44:15.018Z,91.36
2022-10-07T07:47:03.051Z,90.50
2022-10-07T07:48:31.427Z,90.39
2022-10-07T07:52:26.641Z,90.25
2022-10-07T08:04:18.995Z,89.18
2022-10-07T08:06:16.739Z,88.74
2022-10-07T08:08:14.708Z,88.64
2022-10-07T08:10:12.466Z,88.64
2022-10-07T08:12:10.417Z,88.12
2022-10-07T08:13:39.300Z,87.98
2022-10-07T08:15:08.135Z,88.08
2022-10-07T08:17:07.940Z,88.18
2022-10-07T08:18:36.804Z,88.18
2022-10-07T08:20:36.557Z,87.94
2022-10-07T08:22:34.585Z,87.84
2022-10-07T08:24:53.205Z,87.53
2022-10-07T08:33:59.566Z,87.14
2022-10-07T08:46:11.199Z,85.06
2022-10-07T08:48:08.902Z,84.51
2022-10-07T08:52:51.159Z,83.29
2022-10-07T08:54:19.968Z,83.25
2022-10-07T08:55:49.194Z,83.15
2022-10-07T08:57:18.043Z,82.74
2022-10-07T09:00:44.623Z,82.13
2022-10-07T09:03:11.481Z,82.29
2022-10-07T09:04:40.499Z,82.19
2022-10-07T09:06:38.279Z,81.48
2022-10-07T09:08:07.267Z,81.79
2022-10-07T09:09:36.149Z,81.44
2022-10-07T09:12:03.194Z,81.04
2022-10-07T09:13:33.114Z,81.24
2022-10-07T09:15:02.012Z,80.93
2022-10-07T09:16:30.907Z,81.10
2022-10-07T09:19:26.786Z,80.79
2022-10-07T09:22:52.463Z,79.63
2022-10-07T09:24:22.353Z,79.94
2022-10-07T09:26:21.111Z,79.74
2022-10-07T09:29:46.160Z,79.39
2022-10-07T09:32:42.138Z,78.68
2022-10-07T09:34:41.120Z,78.38
2022-10-07T09:37:37.431Z,78.64
2022-10-07T09:39:07.267Z,78.14
2022-10-07T09:44:01.000Z,76.88
2022-10-07T09:46:28.777Z,76.88
2022-10-07T09:48:56.341Z,76.48
2022-10-07T09:52:20.874Z,76.54
2022-10-07T09:53:50.221Z,75.63
2022-10-07T09:56:17.454Z,75.49
2022-10-07T10:02:39.772Z,73.73
2022-10-07T10:06:03.409Z,74.74
2022-10-07T10:08:30.635Z,74.41
2022-10-07T10:14:51.846Z,73.12
2022-10-07T10:18:46.370Z,73.49
2022-10-07T10:20:16.280Z,72.75
2022-10-07T10:22:14.092Z,72.01
2022-10-07T10:24:12.781Z,72.31
2022-10-07T10:25:42.110Z,71.00
2022-10-07T10:28:10.072Z,70.66
2022-10-07T10:29:39.899Z,68.91
2022-10-07T10:33:33.552Z,68.20
2022-10-07T10:36:00.322Z,67.86
2022-10-07T10:37:29.197Z,67.76
2022-10-07T10:39:57.288Z,68.54
2022-10-07T10:41:25.914Z,68.84
2022-10-07T10:46:01.826Z,65.45
2022-10-07T10:49:28.657Z,66.73
2022-10-07T10:52:24.353Z,66.33
2022-10-07T10:54:23.204Z,65.39
2022-10-07T10:55:52.583Z,64.98
2022-10-07T10:57:21.028Z,65.39
2022-10-07T10:58:49.939Z,66.67
2022-10-07T11:00:48.618Z,66.33
2022-10-07T11:03:16.064Z,62.61
2022-10-07T11:08:59.953Z,62.75
2022-10-07T11:13:20.444Z,64.03
2022-10-07T11:14:46.612Z,62.49
2022-10-07T11:16:15.105Z,62.16
2022-10-07T11:17:43.982Z,61.33
2022-10-07T11:19:13.227Z,61.33
2022-10-07T11:20:44.809Z,60.80
2022-10-07T11:22:42.001Z,61.17
2022-10-07T11:24:11.921Z,58.56
2022-10-07T11:26:39.763Z,58.96
2022-10-07T11:29:27.412Z,58.53
2022-10-07T11:35:04.451Z,59.16
2022-10-07T11:37:05.072Z,57.96
2022-10-07T11:39:23.334Z,57.86
2022-10-07T11:41:21.298Z,58.56
2022-10-07T11:48:37.429Z,60.39
2022-10-07T11:54:41.447Z,59.64
2022-10-07T11:56:10.484Z,57.00
2022-10-07T11:58:28.570Z,58.20
2022-10-07T11:59:57.455Z,58.48
2022-10-07T12:04:03.300Z,58.07
2022-10-07T12:10:45.243Z,57.50
2022-10-07T12:13:12.185Z,57.70
2022-10-07T12:15:41.995Z,58.11
2022-10-07T12:22:34.259Z,55.57
2022-10-07T12:25:01.478Z,56.67
2022-10-07T12:29:56.073Z,55.94
2022-10-07T12:32:25.028Z,55.74
2022-10-07T12:42:40.894Z,56.35
2022-10-07T12:46:01.025Z,56.27
2022-10-07T12:48:56.608Z,54.90
2022-10-07T12:55:19.203Z,57.03
2022-10-07T12:57:17.209Z,56.63
2022-10-07T12:59:16.560Z,56.45
2022-10-07T13:01:35.849Z,56.96
2022-10-07T13:05:03.969Z,57.46
2022-10-07T13:07:02.174Z,56.85
2022-10-07T13:09:59.537Z,56.88
2022-10-07T13:12:56.573Z,58.09
2022-10-07T13:14:45.713Z,56.61
2022-10-07T13:16:15.609Z,57.61
2022-10-07T13:21:00.453Z,57.74
2022-10-07T13:22:30.413Z,57.74
2022-10-07T13:24:30.218Z,57.54
2022-10-07T13:28:15.830Z,57.87
2022-10-07T13:31:12.843Z,57.79
2022-10-07T13:32:42.275Z,58.29
2022-10-07T13:34:11.089Z,58.12
2022-10-07T13:41:07.115Z,59.33
2022-10-07T13:42:36.337Z,59.43
2022-10-07T13:49:14.250Z,60.27
2022-10-07T13:55:47.273Z,59.59
2022-10-07T14:02:40.325Z,60.60
2022-10-07T14:05:36.139Z,60.22
2022-10-07T14:10:03.019Z,61.53
2022-10-07T14:13:00.641Z,61.56
2022-10-07T14:15:56.360Z,61.56
2022-10-07T14:19:25.301Z,61.46
2022-10-07T14:22:52.361Z,61.59
2022-10-07T14:26:28.750Z,61.69
2022-10-07T14:27:57.692Z,62.40
2022-10-07T14:29:26.514Z,62.19
2022-10-07T14:30:56.653Z,61.49
2022-10-07T14:34:12.038Z,61.79
2022-10-07T14:35:40.915Z,60.38
2022-10-07T14:42:37.249Z,60.88
2022-10-07T14:44:06.877Z,61.08
2022-10-07T14:45:49.997Z,61.49
2022-10-07T14:48:18.927Z,60.58
2022-10-07T14:50:47.853Z,60.38
2022-10-07T14:53:15.870Z,61.08
2022-10-07T14:54:45.945Z,60.58
2022-10-07T14:57:45.861Z,60.38
2022-10-07T15:00:12.591Z,61.18
2022-10-07T15:02:10.425Z,60.48
2022-10-07T15:13:47.134Z,61.92
2022-10-07T15:15:45.974Z,61.72
2022-10-07T15:17:15.096Z,62.32
2022-10-07T15:19:14.950Z,61.92
2022-10-07T15:20:44.915Z,61.21
2022-10-07T15:26:04.491Z,62.35
2022-10-07T15:27:33.385Z,61.65
2022-10-07T15:38:07.546Z,62.28
2022-10-07T15:42:32.064Z,62.59
2022-10-07T15:44:29.927Z,63.19
2022-10-07T15:47:26.666Z,63.29
2022-10-07T15:51:24.687Z,63.59
2022-10-07T15:54:14.632Z,63.79
2022-10-07T15:56:14.586Z,63.62
2022-10-07T16:01:30.498Z,64.23
2022-10-07T16:02:59.361Z,63.82
2022-10-07T16:07:28.096Z,64.67
2022-10-07T16:08:57.139Z,64.76
2022-10-07T16:11:16.900Z,65.57
2022-10-07T16:13:14.724Z,65.37
2022-10-07T16:14:44.615Z,65.98
2022-10-07T16:17:14.490Z,66.58
2022-10-07T16:18:44.394Z,66.89
2022-10-07T16:22:11.008Z,66.92
2022-10-07T16:25:38.668Z,66.41
2022-10-07T16:29:05.153Z,66.82
2022-10-07T16:31:03.043Z,67.43
2022-10-07T16:36:46.084Z,68.26
2022-10-07T16:40:40.052Z,68.37
2022-10-07T16:45:25.613Z,69.31
2022-10-07T16:49:12.173Z,69.21
2022-10-07T16:52:28.877Z,69.74
2022-10-07T16:53:58.773Z,69.95
2022-10-07T16:59:43.729Z,69.78
2022-10-07T17:01:12.467Z,69.88
2022-10-07T17:04:10.603Z,70.79
2022-10-07T17:06:38.156Z,70.49
2022-10-07T17:08:07.209Z,71.00
2022-10-07T17:09:38.120Z,71.09
2022-10-07T17:11:37.946Z,71.20
2022-10-07T17:13:07.854Z,71.09
2022-10-07T17:15:07.719Z,71.84
2022-10-07T17:22:57.770Z,72.34
2022-10-07T17:24:28.438Z,72.04
2022-10-07T17:27:17.045Z,72.65
2022-10-07T17:34:44.552Z,72.89
2022-10-07T17:36:10.391Z,72.78
2022-10-07T17:38:09.590Z,72.92
2022-10-07T17:40:07.339Z,73.22
2022-10-07T17:42:05.143Z,72.92
2022-10-07T17:44:32.889Z,72.92
2022-10-07T17:46:30.934Z,73.06
2022-10-07T17:48:30.772Z,73.66
2022-10-07T17:51:58.378Z,73.66
2022-10-07T17:53:57.406Z,74.07
2022-10-07T17:57:51.898Z,74.27
2022-10-07T18:01:19.542Z,74.31
2022-10-07T18:02:48.360Z,74.51
2022-10-07T18:06:17.393Z,74.62
2022-10-07T18:08:17.365Z,74.71
2022-10-07T18:13:42.289Z,75.26
2022-10-07T18:17:11.190Z,75.76
2022-10-07T18:20:09.326Z,76.07
2022-10-07T18:24:33.931Z,75.87
2022-10-07T18:26:31.814Z,76.10
2022-10-07T18:29:58.897Z,76.21
2022-10-07T18:31:28.864Z,76.10
2022-10-07T18:33:27.792Z,76.01
2022-10-07T18:41:15.332Z,76.41
2022-10-07T18:47:09.251Z,76.65
2022-10-07T18:50:06.145Z,76.45
2022-10-07T18:54:05.157Z,76.34
2022-10-07T18:57:59.285Z,76.25
2022-10-07T19:06:37.183Z,76.55
2022-10-07T19:09:35.348Z,76.65
2022-10-07T19:13:32.178Z,76.34
2022-10-07T19:20:40.750Z,76.34
2022-10-07T19:22:41.103Z,76.14
2022-10-07T19:24:41.021Z,75.94
2022-10-07T19:26:39.104Z,76.04
2022-10-07T19:28:56.670Z,76.25
2022-10-07T19:31:24.596Z,76.34
2022-10-07T19:32:53.536Z,76.04
2022-10-07T19:36:50.172Z,76.14
2022-10-07T19:38:19.044Z,76.14
2022-10-07T19:39:48.968Z,75.94
2022-10-07T19:41:17.899Z,76.04
2022-10-07T19:42:48.252Z,76.04
2022-10-07T19:47:44.710Z,76.04
2022-10-07T19:52:39.508Z,75.94
2022-10-07T19:55:37.718Z,75.53
2022-10-07T19:59:32.709Z,75.73
2022-10-07T20:02:59.462Z,75.84
2022-10-07T20:04:58.490Z,75.84
2022-10-07T20:06:27.504Z,75.73
2022-10-07T20:10:51.670Z,76.18
2022-10-07T20:12:21.592Z,76.28
2022-10-07T20:15:46.426Z,76.48
2022-10-07T20:19:02.192Z,76.59
2022-10-07T20:23:00.063Z,76.68
2022-10-07T20:25:29.444Z,76.79
2022-10-07T20:29:25.696Z,77.23
2022-10-07T20:31:24.258Z,77.23
2022-10-07T20:33:23.251Z,77.44
2022-10-07T20:34:52.270Z,77.33
2022-10-07T20:40:46.393Z,77.64
2022-10-07T20:47:38.543Z,77.84
2022-10-07T20:49:34.750Z,77.94
2022-10-07T20:53:21.864Z,77.98
2022-10-07T20:55:22.792Z,77.87
2022-10-07T21:02:53.210Z,77.98
2022-10-07T21:10:16.978Z,77.98
2022-10-07T21:12:45.327Z,77.98
2022-10-07T21:15:44.089Z,78.08
2022-10-07T21:20:08.913Z,78.28
2022-10-07T21:26:59.708Z,78.28
2022-10-07T21:32:52.912Z,78.39
2022-10-07T21:35:19.859Z,78.53
2022-10-07T21:36:53.709Z,78.63
2022-10-07T21:38:18.687Z,78.53
2022-10-07T21:40:16.634Z,78.53
2022-10-07T21:42:44.862Z,78.63
2022-10-07T21:45:13.390Z,78.63
2022-10-07T21:46:43.386Z,78.53
2022-10-07T21:48:15.860Z,78.42
2022-10-07T21:50:10.320Z,78.63
2022-10-07T21:52:37.315Z,78.63
2022-10-07T21:54:06.688Z,78.53
2022-10-07T21:55:35.580Z,78.53
2022-10-07T21:57:33.425Z,78.42
2022-10-07T21:59:02.434Z,78.63
2022-10-07T22:01:33.670Z,78.73
2022-10-07T22:03:31.067Z,78.83
2022-10-07T22:05:57.901Z,78.83
2022-10-07T22:09:51.889Z,78.93
2022-10-07T22:12:19.970Z,78.93
2022-10-07T22:13:48.916Z,79.03
2022-10-07T22:15:18.789Z,78.97
2022-10-07T22:16:48.735Z,79.07
2022-10-07T22:18:48.741Z,78.97
2022-10-07T22:20:46.672Z,78.97
2022-10-07T22:22:16.522Z,79.27
2022-10-07T22:24:55.338Z,79.17
2022-10-07T22:26:24.259Z,79.27
2022-10-07T22:28:23.315Z,79.07
2022-10-07T22:32:11.045Z,78.97
2022-10-07T22:33:40.967Z,78.97
2022-10-07T22:35:39.118Z,79.17
2022-10-07T22:38:36.137Z,79.27
2022-10-07T22:40:05.498Z,79.17
2022-10-07T22:41:34.959Z,79.07
2022-10-07T22:50:27.952Z,79.48
2022-10-07T22:52:25.839Z,79.79
2022-10-07T22:54:53.800Z,79.99
2022-10-07T22:56:22.762Z,79.99
2022-10-07T22:58:51.917Z,80.13
2022-10-07T23:00:20.902Z,80.13
2022-10-07T23:03:37.332Z,80.33
2022-10-07T23:05:36.450Z,80.33
2022-10-07T23:07:34.390Z,80.43
2022-10-07T23:11:00.307Z,80.64
2022-10-07T23:13:28.218Z,80.54
2022-10-07T23:15:56.196Z,80.84
2022-10-07T23:18:52.065Z,80.64
2022-10-07T23:20:21.355Z,80.74
2022-10-07T23:22:12.031Z,80.84
2022-10-07T23:25:08.767Z,80.84
2022-10-07T23:27:36.666Z,81.04
2022-10-07T23:32:22.656Z,81.04
2022-10-07T23:34:49.909Z,80.94
2022-10-07T23:43:09.553Z,81.45
2022-10-07T23:44:39.890Z,81.45
2022-10-07T23:51:23.094Z,81.66
2022-10-07T23:56:52.378Z,81.76
2022-10-07T23:58:21.344Z,81.86
2022-10-07T23:59:50.305Z,81.86
